Aérodrome :
LOGIN :

S'inscrire | Disclaimer

   EN    FR    IT 

 










Légende :    VFR   VFR Marginal   IFR   IFR Intensif   IFR Très Intensif
Visi : 
Plafond : 
>= 8 km
>= 3000ft
5 à 8 km
1000 à 3000 ft
1500m à 5 km
500 à 1000 ft
800 à 1500m
200 à 500 ft
< 800m
< 200 ft
Symboles :   Orages  Brouillard  Fortes neiges  Fortes précipitations  Vent > 20 kt
SIGMETs :   Divers  Orages  Givrage  Turbulence  Onde Orograph.  Cendres Volcan.






- Altitude de l'aérodrome : 65 ft
- Code IATA : PIK


EGPK - Glasgow Prestwick

DERNIER METAR :
  • 091120Z 10006KT 070V130 9999 FEW030 21/11 Q1022

METARs EXPIRÉS :
  • 091050Z 08007KT 9999 FEW027 21/12 Q1023
  • 091020Z 08007KT 040V110 9999 FEW027 20/11 Q1023
  • 090950Z 08007KT 050V120 9999 FEW027 19/11 Q1023
  • 090920Z 07007KT 040V110 9999 FEW025 18/11 Q1024
  • 090850Z 06008KT 9999 FEW025 16/11 Q1024

TAF TAF EGPK
Valide du 09 à 12h jusqu'au 10 à 12h UTC


091055Z 0912/1012 07009KT CAVOK
PROB30
TEMPO 1000/1006 BKN014



MET'MAP, la Météo Aéronautique d'un coup d'oeil ! - Copyright ORBIFLY Décembre 2007 - Disclaimer

ORBIFLY MET'MAP TEAM :

Programmation & Développement : Alexandra Zaïnal
Sur une idée originale de : Baudouin d'Aumeries
Assistance à la programmation : Marc-Olivier Méhu
Soutien technique & logistique : Manuel Goepfert

Contact : metmap@orbifly.com




SOURCES & CREDITS :

   NOAA